Time;durP1;ratioP1;P1;durP2;ratioP2;P2;SDS_P1;SDS_P2;PMS_P1;PMS_P2;Temp;Humidity;BMP_temperature;BMP_pressure;BME280_temperature;BME280_humidity;BME280_pressure;Samples;Min_cycle;Max_cycle;Signal;HPM_P1;HPM_P2
2022/09/06 00:03:13;;;;;;;6.20;2.80;;;;;;;10.03;61.88;99425.42;433330;1270;99239;-45
2022/09/06 00:13:20;;;;;;;5.10;2.40;;;;;;;9.93;62.63;99423.57;432340;1270;112500;-42
2022/09/06 00:23:27;;;;;;;5.10;3.10;;;;;;;9.99;63.22;99414.63;432634;1270;109669;-42
2022/09/06 00:33:35;;;;;;;3.60;2.60;;;;;;;10.10;63.75;99409.19;432545;1270;99241;-42
2022/09/06 00:43:43;;;;;;;4.00;3.10;;;;;;;10.07;63.99;99414.55;433256;1270;108259;-43
2022/09/06 00:53:52;;;;;;;6.50;3.10;;;;;;;9.96;64.45;99414.95;432972;1270;98583;-43
2022/09/06 01:03:59;;;;;;;10.80;4.00;;;;;;;9.68;64.59;99410.02;432626;1270;112910;-41
2022/09/06 01:14:05;;;;;;;5.50;3.60;;;;;;;9.53;64.88;99405.17;433207;1269;109152;-42
2022/09/06 01:24:48;;;;;;;5.00;3.00;;;;;;;9.36;65.13;99406.02;433314;1258;99160;-41
2022/09/06 01:34:56;;;;;;;6.00;3.40;;;;;;;9.38;65.50;99393.34;432326;1270;108879;-43
2022/09/06 01:45:05;;;;;;;5.70;3.70;;;;;;;9.10;65.61;99385.95;433119;1269;97954;-42
2022/09/06 02:05:25;;;;;;;4.10;2.90;;;;;;;8.62;66.24;99376.77;433254;1269;109404;-43
2022/09/06 02:15:37;;;;;;;6.60;3.90;;;;;;;8.53;66.64;99380.60;433244;1269;99239;-43
2022/09/06 02:25:50;;;;;;;6.90;4.10;;;;;;;8.52;67.01;99373.91;433690;1270;108839;-42
2022/09/06 02:36:02;;;;;;;7.90;4.10;;;;;;;8.38;67.07;99366.65;433047;1270;99229;-42
2022/09/06 02:46:06;;;;;;;14.00;4.70;;;;;;;8.24;67.46;99359.08;432763;1270;112931;-42
2022/09/06 02:56:12;;;;;;;6.10;3.80;;;;;;;8.07;67.58;99362.02;433096;1270;109032;-42
2022/09/06 03:06:22;;;;;;;6.60;3.50;;;;;;;7.96;67.85;99352.39;433218;1270;99270;-42
2022/09/06 03:16:29;;;;;;;8.30;4.10;;;;;;;7.98;68.00;99337.09;432788;1269;108911;-40
2022/09/06 03:26:36;;;;;;;7.50;4.70;;;;;;;7.89;68.40;99337.61;432859;1270;99545;-41
2022/09/06 03:36:43;;;;;;;13.10;4.90;;;;;;;7.76;68.66;99337.02;432534;1270;111245;-40
2022/09/06 03:46:51;;;;;;;8.40;4.30;;;;;;;7.58;68.65;99335.20;433168;1270;108819;-41
2022/09/06 03:56:58;;;;;;;14.30;4.30;;;;;;;7.42;68.53;99343.20;432899;1270;99869;-41
2022/09/06 04:07:05;;;;;;;18.40;4.80;;;;;;;7.35;68.83;99341.77;432545;1270;109351;-40
2022/09/06 04:17:13;;;;;;;16.10;4.70;;;;;;;7.38;69.17;99337.06;433350;1270;98726;-41
2022/09/06 04:27:20;;;;;;;11.30;4.60;;;;;;;7.30;69.27;99340.06;433486;1269;112000;-44
2022/09/06 04:37:27;;;;;;;10.00;5.30;;;;;;;7.32;69.37;99342.17;433168;1269;108467;-41
2022/09/06 04:47:34;;;;;;;9.30;4.60;;;;;;;7.49;69.77;99349.31;432541;1270;98557;-41
2022/09/06 04:57:41;;;;;;;12.60;5.90;;;;;;;7.79;69.86;99354.69;433395;1270;109903;-41
2022/09/06 05:07:53;;;;;;;17.80;8.00;;;;;;;7.93;69.81;99362.38;432685;1270;98930;-42
2022/09/06 05:28:09;;;;;;;15.50;7.60;;;;;;;10.41;70.32;99343.11;432781;1270;109403;-43
2022/09/06 05:38:16;;;;;;;16.70;7.60;;;;;;;12.26;69.47;99348.64;433222;1270;98618;-42
2022/09/06 05:48:23;;;;;;;26.80;7.30;;;;;;;13.99;68.48;99352.27;432803;1270;108798;-43
2022/09/06 05:58:31;;;;;;;11.10;6.30;;;;;;;15.17;66.51;99354.86;433125;1270;99940;-42
2022/09/06 06:08:38;;;;;;;15.40;6.30;;;;;;;15.85;64.74;99353.65;431999;1270;1802209;-42
2022/09/06 06:18:46;;;;;;;12.20;5.10;;;;;;;16.60;63.08;99349.77;433259;1270;107795;-42
2022/09/06 06:29:00;;;;;;;10.40;4.30;;;;;;;17.33;61.81;99343.18;433161;1271;98834;-42
2022/09/06 06:39:09;;;;;;;7.10;3.70;;;;;;;17.49;59.54;99347.92;432612;1270;108747;-43
2022/09/06 06:49:14;;;;;;;;;;;;;;;17.83;58.60;99347.98;433054;1271;98051;-40
2022/09/06 06:59:22;;;;;;;15.40;5.20;;;;;;;17.86;56.86;99346.45;432613;1270;112491;-41
2022/09/06 07:09:28;;;;;;;7.20;2.90;;;;;;;17.89;55.71;99353.16;433175;1270;108566;-39
2022/09/06 07:19:55;;;;;;;8.10;3.20;;;;;;;18.36;54.25;99352.61;432478;1270;99280;-42
2022/09/06 07:30:18;;;;;;;11.70;3.10;;;;;;;19.00;53.44;99359.16;433587;1270;108869;-39
2022/09/06 07:50:32;;;;;;;8.30;3.30;;;;;;;18.73;50.35;99359.70;432737;1270;113166;-41
2022/09/06 08:01:14;;;;;;;9.80;3.70;;;;;;;19.00;48.96;99353.42;433021;1269;108823;-38
2022/09/06 08:11:21;;;;;;;7.40;2.20;;;;;;;19.38;48.01;99350.86;432416;1270;99241;-39
2022/09/06 08:21:31;;;;;;;3.50;1.10;;;;;;;19.64;47.69;99347.63;432791;1270;108670;-39
2022/09/06 08:31:40;;;;;;;4.60;1.50;;;;;;;19.83;46.57;99347.11;432804;1270;98553;-41
2022/09/06 08:41:49;;;;;;;3.10;0.80;;;;;;;19.83;43.77;99354.09;432349;1271;112085;-40
2022/09/06 08:52:15;;;;;;;10.30;1.30;;;;;;;19.57;43.35;99349.19;432319;1271;108804;-42
2022/09/06 09:02:22;;;;;;;1.70;0.70;;;;;;;19.64;42.85;99339.59;432495;1271;98844;-40
2022/09/06 09:12:35;;;;;;;3.50;1.20;;;;;;;19.94;43.02;99335.48;432882;1269;108785;-40
2022/09/06 09:22:44;;;;;;;3.40;1.20;;;;;;;20.20;42.56;99325.72;432816;1271;97956;-40
2022/09/06 09:32:51;;;;;;;2.80;1.00;;;;;;;20.38;42.93;99308.83;432339;1271;112391;-40
2022/09/06 09:42:58;;;;;;;1.40;1.00;;;;;;;20.44;42.28;99300.30;432384;1270;109717;-41
2022/09/06 10:03:18;;;;;;;1.60;0.70;;;;;;;20.15;40.69;99274.39;432502;1270;107800;-40
2022/09/06 10:23:37;;;;;;;4.60;1.00;;;;;;;20.12;40.61;99255.36;432604;1270;112415;-40
2022/09/06 10:34:24;;;;;;;3.60;0.80;;;;;;;20.10;40.18;99255.73;432555;1270;107089;-40
2022/09/06 10:44:34;;;;;;;1.40;0.70;;;;;;;20.25;39.65;99256.30;432754;1270;98877;-41
2022/09/06 10:54:46;;;;;;;2.40;0.80;;;;;;;20.21;39.98;99254.34;432455;1270;108641;-43
2022/09/06 11:04:57;;;;;;;3.50;0.70;;;;;;;20.44;40.19;99245.85;432944;1270;99247;-41
2022/09/06 11:15:28;;;;;;;2.00;0.70;;;;;;;20.58;39.63;99241.17;432701;1270;112494;-40
2022/09/06 11:25:49;;;;;;;1.40;1.10;;;;;;;20.76;39.24;99231.73;432910;1271;107663;-41
2022/09/06 11:36:18;;;;;;;2.80;0.80;;;;;;;20.73;39.20;99221.17;433263;1270;98063;-39
2022/09/06 11:47:00;;;;;;;1.50;1.00;;;;;;;20.26;39.15;99216.02;432646;1270;108634;-41
2022/09/06 11:57:10;;;;;;;1.40;1.30;;;;;;;20.38;39.75;99228.95;433148;1270;99026;-39
2022/09/06 12:07:17;;;;;;;3.50;1.80;;;;;;;20.47;39.94;99231.31;432459;1270;111628;-42
2022/09/06 12:17:24;;;;;;;2.10;1.10;;;;;;;20.73;40.61;99221.50;433020;1270;107939;-42
2022/09/06 12:27:34;;;;;;;4.00;2.30;;;;;;;20.79;40.59;99203.85;433082;1270;98944;-41
2022/09/06 12:37:43;;;;;;;6.40;1.50;;;;;;;20.70;40.70;99194.39;432876;1270;108774;-42
2022/09/06 12:48:02;;;;;;;2.80;1.50;;;;;;;20.45;40.33;99193.93;432838;1270;99930;-40
2022/09/06 12:58:12;;;;;;;4.60;2.00;;;;;;;20.58;39.74;99176.86;432916;1270;111552;-41
2022/09/06 13:08:22;;;;;;;2.10;1.40;;;;;;;20.79;39.80;99163.77;432867;1270;109076;-40
2022/09/06 13:18:31;;;;;;;3.30;1.70;;;;;;;20.79;39.92;99153.92;432579;1270;99265;-42
2022/09/06 13:28:39;;;;;;;1.50;1.20;;;;;;;20.72;40.07;99144.55;432328;1270;108801;-41
2022/09/06 13:38:47;;;;;;;2.10;1.50;;;;;;;20.71;40.03;99139.94;433165;1270;98850;-42
2022/09/06 13:48:57;;;;;;;2.00;1.30;;;;;;;20.75;40.13;99138.00;433144;1270;112554;-42
2022/09/06 13:59:06;;;;;;;3.10;1.40;;;;;;;20.61;40.01;99132.55;433378;1269;108929;-42
2022/09/06 14:09:13;;;;;;;4.00;1.60;;;;;;;20.44;40.12;99130.02;433432;1270;99308;-42
2022/09/06 14:19:20;;;;;;;2.20;1.10;;;;;;;20.42;40.15;99116.93;433043;1270;108848;-42
2022/09/06 14:29:27;;;;;;;1.70;1.10;;;;;;;20.35;40.15;99114.23;433252;1269;99231;-42
2022/09/06 14:39:34;;;;;;;6.60;1.30;;;;;;;20.15;39.74;99103.44;433182;1269;111433;-40
2022/09/06 14:49:41;;;;;;;3.80;1.30;;;;;;;20.15;39.94;99096.92;433296;1269;108983;-39
2022/09/06 14:59:48;;;;;;;2.70;1.20;;;;;;;19.98;40.02;99100.06;432497;1270;99246;-39
2022/09/06 15:09:55;;;;;;;4.80;1.30;;;;;;;19.87;40.43;99101.21;433023;1269;112411;-42
2022/09/06 15:20:04;;;;;;;4.30;1.30;;;;;;;19.68;40.49;99098.27;433139;1270;108831;-40
2022/09/06 15:30:13;;;;;;;2.90;1.50;;;;;;;19.41;40.86;99101.61;433042;1270;99154;-41
2022/09/06 15:50:25;;;;;;;5.50;1.60;;;;;;;18.86;41.69;99093.14;432666;1270;98902;-41
2022/09/06 16:01:01;;;;;;;4.60;1.40;;;;;;;18.70;42.15;99089.53;433237;1270;112408;-40
2022/09/06 16:11:09;;;;;;;2.40;1.50;;;;;;;18.55;42.41;99074.10;433050;1270;108648;-41
2022/09/06 16:21:18;;;;;;;7.10;2.00;;;;;;;18.49;42.86;99068.48;432636;1270;99272;-41
2022/09/06 16:31:26;;;;;;;4.90;1.60;;;;;;;18.32;42.99;99063.31;432751;1270;108257;-41
2022/09/06 16:41:34;;;;;;;2.10;1.20;;;;;;;18.11;43.37;99059.36;433315;1270;98828;-41
2022/09/06 16:51:41;;;;;;;6.50;2.00;;;;;;;17.93;43.80;99063.33;433114;1270;112518;-42
2022/09/06 17:01:48;;;;;;;3.60;1.50;;;;;;;17.71;43.98;99066.07;433463;1269;108955;-41
2022/09/06 17:11:55;;;;;;;4.30;2.40;;;;;;;17.45;44.45;99063.06;433391;1269;101449;-41
2022/09/06 17:22:02;;;;;;;2.40;1.90;;;;;;;17.07;45.13;99054.16;432910;1270;107814;-43
2022/09/06 17:32:10;;;;;;;4.40;2.10;;;;;;;16.72;45.94;99050.41;432524;1270;99263;-40
2022/09/06 17:42:17;;;;;;;6.80;2.90;;;;;;;16.26;46.56;99046.95;432409;1270;112509;-41
2022/09/06 17:52:24;;;;;;;5.10;2.80;;;;;;;15.96;47.57;99047.85;433446;1270;108765;-40
2022/09/06 18:02:31;;;;;;;8.20;2.90;;;;;;;15.84;47.88;99053.51;433015;1270;99089;-41
2022/09/06 18:12:38;;;;;;;5.90;3.80;;;;;;;15.69;48.24;99056.35;431923;1270;1585036;-41
2022/09/06 18:22:46;;;;;;;6.90;3.80;;;;;;;15.52;48.54;99053.29;433264;1270;99233;-41
2022/09/06 18:32:53;;;;;;;8.80;4.50;;;;;;;15.40;48.84;99067.48;433391;1269;112726;-42
2022/09/06 18:43:00;;;;;;;12.00;5.10;;;;;;;15.17;49.41;99064.88;433340;1270;108977;-42
2022/09/06 18:53:08;;;;;;;11.90;3.80;;;;;;;15.04;49.77;99085.52;432948;1270;97985;-42
2022/09/06 19:03:15;;;;;;;13.70;4.50;;;;;;;14.94;50.21;99084.69;433241;1270;108541;-42
2022/09/06 19:23:29;;;;;;;6.60;4.00;;;;;;;14.73;50.95;99085.30;433431;1270;112979;-41
2022/09/06 19:33:37;;;;;;;7.50;4.50;;;;;;;14.57;51.30;99079.60;433381;1270;109100;-42
2022/09/06 19:43:45;;;;;;;13.90;4.90;;;;;;;14.43;51.69;99064.11;433223;1270;98541;-41
2022/09/06 19:53:53;;;;;;;13.70;6.10;;;;;;;14.23;52.09;99060.54;433362;1270;107846;-41
2022/09/06 20:04:01;;;;;;;10.30;5.00;;;;;;;14.15;52.55;99057.96;433324;1270;98857;-42
2022/09/06 20:14:09;;;;;;;10.80;5.50;;;;;;;14.08;53.07;99047.12;433087;1270;112464;-39
2022/09/06 20:24:16;;;;;;;13.80;5.70;;;;;;;13.95;53.56;99050.46;433138;1270;107888;-40
2022/09/06 20:34:24;;;;;;;9.90;5.40;;;;;;;13.84;54.03;99044.12;433152;1270;98809;-41
2022/09/06 20:44:31;;;;;;;12.30;5.60;;;;;;;13.70;54.25;99044.05;433165;1270;108854;-41
2022/09/06 20:54:38;;;;;;;9.70;4.90;;;;;;;13.52;54.49;99043.73;433044;1270;98866;-42
2022/09/06 21:04:46;;;;;;;15.30;4.70;;;;;;;13.37;54.88;99044.63;433348;1270;112433;-41
2022/09/06 21:25:00;;;;;;;8.30;4.60;;;;;;;13.12;55.47;99056.48;432868;1269;99221;-41
2022/09/06 21:35:08;;;;;;;9.50;4.70;;;;;;;13.14;55.70;99055.42;432308;1270;108688;-42
2022/09/06 21:45:15;;;;;;;12.50;4.80;;;;;;;13.05;55.96;99054.84;433155;1269;97969;-40
2022/09/06 21:55:22;;;;;;;8.80;4.00;;;;;;;12.87;55.91;99043.87;432408;1270;112437;-41
2022/09/06 22:05:29;;;;;;;7.40;3.90;;;;;;;12.79;55.92;99031.60;432840;1270;107794;-41
2022/09/06 22:15:36;;;;;;;11.10;4.40;;;;;;;12.71;55.76;99014.02;432566;1270;99285;-44
2022/09/06 22:25:43;;;;;;;20.10;6.70;;;;;;;12.57;55.29;99007.77;432628;1270;108403;-41
2022/09/06 22:35:51;;;;;;;19.50;7.60;;;;;;;12.53;54.93;99003.13;433116;1269;98084;-41
2022/09/06 22:46:02;;;;;;;23.40;7.20;;;;;;;12.53;54.45;98998.31;432346;1270;112208;-41
2022/09/06 22:56:06;;;;;;;12.80;4.10;;;;;;;12.43;54.11;98987.21;432401;1270;109003;-40
2022/09/06 23:06:14;;;;;;;7.30;2.70;;;;;;;12.31;53.76;98982.95;433435;1270;99232;-40
2022/09/06 23:16:21;;;;;;;5.90;2.90;;;;;;;12.21;53.48;98982.66;432585;1270;108936;-42
2022/09/06 23:26:30;;;;;;;5.40;3.60;;;;;;;12.17;53.32;98979.89;433179;1270;99305;-41
2022/09/06 23:36:38;;;;;;;12.60;4.10;;;;;;;12.13;53.20;98975.82;433014;1270;112968;-41
2022/09/06 23:46:45;;;;;;;4.40;2.60;;;;;;;11.96;53.04;98976.01;433226;1269;108996;-41
2022/09/06 23:56:52;;;;;;;7.00;2.20;;;;;;;11.89;53.26;98970.27;433302;1270;99250;-41
